Time;durP1;ratioP1;P1;durP2;ratioP2;P2;SDS_P1;SDS_P2;PMS_P1;PMS_P2;Temp;Humidity;BMP_temperature;BMP_pressure;BME280_temperature;BME280_humidity;BME280_pressure;Samples;Min_cycle;Max_cycle;Signal;HPM_P1;HPM_P2
2022/03/04 00:00:20;;;;;;;;;;;;;;;0.60;46.65;96435.47;5004821;28;20332;-76
2022/03/04 00:02:46;;;;;;;;;;;;;;;0.58;46.60;96439.97;5009669;28;19955;-74
2022/03/04 00:05:12;;;;;;;;;;;;;;;0.56;46.73;96441.09;5007969;28;20398;-74
2022/03/04 00:07:38;;;;;;;;;;;;;;;0.52;46.69;96445.75;5005608;28;20022;-74
2022/03/04 00:10:04;;;;;;;;;;;;;;;0.47;46.95;96450.59;5005232;28;20013;-74
2022/03/04 00:12:30;;;;;;;;;;;;;;;0.44;47.06;96453.44;5009648;28;20371;-74
2022/03/04 00:14:56;;;;;;;;;;;;;;;0.45;47.55;96455.09;5007793;28;19958;-74
2022/03/04 00:17:21;;;;;;;;;;;;;;;0.45;47.19;96449.94;5004459;28;19998;-74
2022/03/04 00:19:47;;;;;;;;;;;;;;;0.46;47.46;96453.31;5003519;28;19950;-74
2022/03/04 00:22:13;;;;;;;;;;;;;;;0.44;47.30;96453.44;5005725;28;19947;-74
2022/03/04 00:24:39;;;;;;;;;;;;;;;0.45;47.52;96460.25;5007515;28;19951;-74
2022/03/04 00:27:05;;;;;;;;;;;;;;;0.44;47.68;96455.22;5003150;28;19963;-74
2022/03/04 00:29:31;;;;;;;;;;;;;;;0.43;47.49;96457.00;5004951;28;19956;-74
2022/03/04 00:31:57;;;;;;;;;;;;;;;0.38;47.70;96460.06;5006658;28;20427;-74
2022/03/04 00:34:23;;;;;;;;;;;;;;;0.37;47.71;96470.53;5006588;28;20054;-73
2022/03/04 00:36:49;;;;;;;;;;;;;;;0.33;47.94;96464.06;5002605;28;19956;-74
2022/03/04 00:39:15;;;;;;;;;;;;;;;0.31;48.20;96463.41;5011852;28;20019;-74
2022/03/04 00:41:42;;;;;;;;;;;;;;;0.30;48.26;96470.34;5004959;28;19956;-74
2022/03/04 00:44:08;;;;;;;;;;;;;;;0.29;47.86;96471.28;5005704;28;19982;-74
2022/03/04 00:46:34;;;;;;;;;;;;;;;0.27;48.05;96472.41;4984547;28;19960;-74
2022/03/04 00:49:00;;;;;;;;;;;;;;;0.22;48.01;96466.91;5006358;28;20426;-73
2022/03/04 00:51:26;;;;;;;;;;;;;;;0.17;48.38;96467.38;5003868;28;19975;-74
2022/03/04 00:53:52;;;;;;;;;;;;;;;0.11;48.37;96470.53;5004296;28;19949;-74
2022/03/04 00:56:18;;;;;;;;;;;;;;;0.05;48.66;96463.41;5001415;28;20336;-74
2022/03/04 00:58:44;;;;;;;;;;;;;;;0.01;48.63;96475.00;5010803;28;19957;-74
2022/03/04 01:01:10;;;;;;;;;;;;;;;-0.03;48.73;96474.47;5002966;28;20409;-74
2022/03/04 01:03:36;;;;;;;;;;;;;;;-0.09;49.07;96467.34;5006069;28;20281;-74
2022/03/04 01:06:03;;;;;;;;;;;;;;;-0.11;49.07;96471.84;5004774;28;19957;-73
2022/03/04 01:08:29;;;;;;;;;;;;;;;-0.17;49.41;96465.50;5009786;28;19953;-74
2022/03/04 01:10:55;;;;;;;;;;;;;;;-0.22;49.40;96468.53;5008711;28;20429;-74
2022/03/04 01:13:21;;;;;;;;;;;;;;;-0.28;49.42;96463.16;4999641;28;19961;-74
2022/03/04 01:15:47;;;;;;;;;;;;;;;-0.32;49.66;96470.38;5005143;28;19955;-74
2022/03/04 01:18:13;;;;;;;;;;;;;;;-0.37;49.43;96466.66;5009141;28;19959;-74
2022/03/04 01:20:39;;;;;;;;;;;;;;;-0.42;49.92;96461.91;5005832;28;20312;-73
2022/03/04 01:23:05;;;;;;;;;;;;;;;-0.45;49.95;96470.75;5003882;28;19952;-73
2022/03/04 01:25:32;;;;;;;;;;;;;;;-0.49;49.99;96466.88;5005798;28;20374;-73
2022/03/04 01:27:58;;;;;;;;;;;;;;;-0.52;50.12;96462.03;5001314;28;20307;-73
2022/03/04 01:30:24;;;;;;;;;;;;;;;-0.55;49.97;96456.34;5001130;28;20324;-73
2022/03/04 01:32:50;;;;;;;;;;;;;;;-0.60;49.90;96459.38;5006435;28;20019;-74
2022/03/04 01:35:16;;;;;;;;;;;;;;;-0.64;50.54;96458.84;5004947;28;20397;-73
2022/03/04 01:37:42;;;;;;;;;;;;;;;-0.66;50.30;96465.91;5002001;28;19969;-73
2022/03/04 01:40:09;;;;;;;;;;;;;;;-0.70;50.68;96456.84;5000636;28;20410;-73
2022/03/04 01:42:35;;;;;;;;;;;;;;;-0.71;50.19;96457.81;5011561;28;19960;-73
2022/03/04 01:45:01;;;;;;;;;;;;;;;-0.73;50.14;96458.94;5003831;28;19948;-73
2022/03/04 01:47:27;;;;;;;;;;;;;;;-0.75;50.30;96453.13;5004077;28;19962;-73
2022/03/04 01:49:53;;;;;;;;;;;;;;;-0.78;50.18;96446.47;5001050;28;19999;-73
2022/03/04 01:52:20;;;;;;;;;;;;;;;-0.79;50.66;96449.22;5010610;28;19976;-73
2022/03/04 01:54:46;;;;;;;;;;;;;;;-0.88;50.83;96441.41;5003305;28;19963;-73
2022/03/04 01:57:14;;;;;;;;;;;;;;;-0.92;50.84;96442.66;5003021;28;19948;-73
2022/03/04 01:59:40;;;;;;;;;;;;;;;-0.96;50.47;96446.47;5005492;28;19950;-73
2022/03/04 02:02:06;;;;;;;;;;;;;;;-1.03;50.78;96448.00;5009598;28;19997;-73
2022/03/04 02:04:32;;;;;;;;;;;;;;;-1.09;50.98;96444.25;5000603;28;19950;-73
2022/03/04 02:06:58;;;;;;;;;;;;;;;-1.11;50.91;96446.19;4986140;28;19951;-73
2022/03/04 02:09:24;;;;;;;;;;;;;;;-1.12;51.12;96438.59;5002724;28;19995;-73
2022/03/04 02:11:51;;;;;;;;;;;;;;;-1.12;51.02;96452.25;5009819;28;20310;-73
2022/03/04 02:14:17;;;;;;;;;;;;;;;-1.14;51.24;96438.72;5004164;28;19956;-73
2022/03/04 02:16:58;;;;;;;;;;;;;;;-1.19;51.46;96443.50;5005104;28;19950;-73
2022/03/04 02:19:24;;;;;;;;;;;;;;;-1.21;51.73;96437.69;5005058;28;19998;-73
2022/03/04 02:21:54;;;;;;;;;;;;;;;-1.24;51.59;96437.97;5001014;28;20003;-73
2022/03/04 02:24:22;;;;;;;;;;;;;;;-1.26;51.36;96434.72;5001789;28;19949;-73
2022/03/04 02:26:48;;;;;;;;;;;;;;;-1.29;51.46;96440.19;5003874;28;20312;-73
2022/03/04 02:29:15;;;;;;;;;;;;;;;-1.32;51.50;96437.91;5009464;28;19954;-73
2022/03/04 02:31:41;;;;;;;;;;;;;;;-1.35;51.37;96431.25;5005636;28;19973;-73
2022/03/04 02:34:07;;;;;;;;;;;;;;;-1.39;51.66;96424.78;4998754;28;20323;-73
2022/03/04 02:36:33;;;;;;;;;;;;;;;-1.42;51.82;96430.22;5008762;28;19943;-73
2022/03/04 02:38:59;;;;;;;;;;;;;;;-1.46;52.19;96427.13;5008485;28;19957;-73
2022/03/04 02:41:25;;;;;;;;;;;;;;;-1.49;52.13;96427.44;5003206;28;19950;-73
2022/03/04 02:43:51;;;;;;;;;;;;;;;-1.51;51.71;96428.50;5002362;28;19976;-73
2022/03/04 02:46:17;;;;;;;;;;;;;;;-1.53;52.00;96433.81;5003798;28;19966;-73
2022/03/04 02:48:43;;;;;;;;;;;;;;;-1.54;51.99;96436.50;5006582;28;20481;-73
2022/03/04 02:51:09;;;;;;;;;;;;;;;-1.58;52.31;96430.84;5008441;28;19953;-73
2022/03/04 02:53:35;;;;;;;;;;;;;;;-1.61;52.38;96443.19;5003092;28;19951;-73
2022/03/04 02:56:01;;;;;;;;;;;;;;;-1.65;52.41;96440.06;5005304;28;19952;-73
2022/03/04 02:58:27;;;;;;;;;;;;;;;-1.68;52.21;96437.78;5002848;28;19952;-73
2022/03/04 03:00:52;;;;;;;;;;;;;;;-1.72;52.14;96431.28;5003466;28;19955;-73
2022/03/04 03:03:18;;;;;;;;;;;;;;;-1.74;52.29;96440.91;5002323;28;19999;-73
2022/03/04 03:05:44;;;;;;;;;;;;;;;-1.78;52.46;96448.13;5003738;28;19951;-73
2022/03/04 03:08:11;;;;;;;;;;;;;;;-1.80;52.75;96451.78;5002632;28;19989;-73
2022/03/04 03:10:37;;;;;;;;;;;;;;;-1.82;52.55;96454.47;5006179;28;19952;-73
2022/03/04 03:13:03;;;;;;;;;;;;;;;-1.84;53.01;96456.38;5001755;28;19978;-73
2022/03/04 03:15:29;;;;;;;;;;;;;;;-1.85;53.04;96447.03;5002306;28;20303;-73
2022/03/04 03:17:55;;;;;;;;;;;;;;;-1.85;52.83;96452.19;5002401;28;19961;-73
2022/03/04 03:20:21;;;;;;;;;;;;;;;-1.85;52.99;96452.19;5002568;28;20391;-73
2022/03/04 03:22:46;;;;;;;;;;;;;;;-1.87;52.79;96454.91;5006433;28;19947;-73
2022/03/04 03:25:12;;;;;;;;;;;;;;;-1.88;52.76;96449.91;5003855;28;19959;-73
2022/03/04 03:27:39;;;;;;;;;;;;;;;-1.90;52.91;96444.88;5003002;28;20343;-73
2022/03/04 03:30:06;;;;;;;;;;;;;;;-1.91;53.05;96450.16;5005725;28;20415;-73
2022/03/04 03:32:32;;;;;;;;;;;;;;;-1.93;53.17;96442.63;5003916;28;19964;-73
2022/03/04 03:34:58;;;;;;;;;;;;;;;-1.93;53.42;96444.34;5005529;28;19965;-73
2022/03/04 03:37:24;;;;;;;;;;;;;;;-1.94;53.74;96446.13;5001598;28;19955;-73
2022/03/04 03:39:50;;;;;;;;;;;;;;;-1.94;53.06;96443.56;4997958;28;19953;-74
2022/03/04 03:42:16;;;;;;;;;;;;;;;-1.96;53.57;96439.50;5006573;28;19954;-73
2022/03/04 03:44:42;;;;;;;;;;;;;;;-1.98;53.38;96438.84;5008771;28;19974;-73
2022/03/04 03:47:09;;;;;;;;;;;;;;;-1.98;53.15;96436.25;5003076;28;19954;-73
2022/03/04 03:49:35;;;;;;;;;;;;;;;-1.99;53.31;96440.59;5001398;28;19958;-73
2022/03/04 03:52:02;;;;;;;;;;;;;;;-2.00;53.39;96433.03;5003545;28;19966;-73
2022/03/04 03:54:28;;;;;;;;;;;;;;;-2.02;53.58;96446.00;5000954;28;19955;-73
2022/03/04 03:56:54;;;;;;;;;;;;;;;-2.05;53.12;96441.16;5008427;28;20014;-73
2022/03/04 03:59:20;;;;;;;;;;;;;;;-2.07;54.16;96445.63;5006057;28;19997;-73
2022/03/04 04:01:45;;;;;;;;;;;;;;;-2.10;53.70;96446.72;5007883;28;20480;-73
2022/03/04 04:04:14;;;;;;;;;;;;;;;-2.14;53.70;96447.94;5002800;28;20027;-73
2022/03/04 04:06:40;;;;;;;;;;;;;;;-2.15;53.63;96446.31;5006383;28;19949;-73
2022/03/04 04:09:08;;;;;;;;;;;;;;;-2.16;54.00;96454.16;5009693;28;19951;-73
2022/03/04 04:11:38;;;;;;;;;;;;;;;-2.16;53.78;96452.41;5007869;28;19976;-74
2022/03/04 04:14:04;;;;;;;;;;;;;;;-2.16;54.03;96456.72;5003960;28;20395;-73
2022/03/04 04:16:31;;;;;;;;;;;;;;;-2.18;54.39;96456.88;5006854;28;19974;-73
2022/03/04 04:18:57;;;;;;;;;;;;;;;-2.20;53.73;96456.19;5003226;28;19946;-73
2022/03/04 04:21:24;;;;;;;;;;;;;;;-2.21;53.82;96457.13;5007505;28;19956;-73
2022/03/04 04:23:50;;;;;;;;;;;;;;;-2.21;54.08;96456.31;5003291;28;19955;-73
2022/03/04 04:26:16;;;;;;;;;;;;;;;-2.23;54.21;96464.16;5001529;28;19962;-75
2022/03/04 04:28:42;;;;;;;;;;;;;;;-2.23;54.56;96459.03;5008615;28;19963;-73
2022/03/04 04:31:08;;;;;;;;;;;;;;;-2.23;53.98;96465.94;5007229;28;19953;-73
2022/03/04 04:33:34;;;;;;;;;;;;;;;-2.26;53.46;96467.03;5003529;28;20019;-73
2022/03/04 04:35:59;;;;;;;;;;;;;;;-2.28;53.96;96471.47;5005717;28;19996;-73
2022/03/04 04:38:25;;;;;;;;;;;;;;;-2.30;53.79;96463.09;5005335;28;19950;-73
2022/03/04 04:40:51;;;;;;;;;;;;;;;-2.32;54.37;96459.84;5005002;28;19947;-73
2022/03/04 04:43:17;;;;;;;;;;;;;;;-2.36;54.13;96461.88;5005315;28;20071;-73
2022/03/04 04:45:43;;;;;;;;;;;;;;;-2.40;54.43;96464.88;5005631;28;19982;-73
2022/03/04 04:48:09;;;;;;;;;;;;;;;-2.42;55.33;96469.31;5010979;28;19995;-73
2022/03/04 04:50:35;;;;;;;;;;;;;;;-2.46;54.69;96468.78;5006457;28;19962;-73
2022/03/04 04:53:00;;;;;;;;;;;;;;;-2.48;54.93;96474.06;5005105;28;20403;-73
2022/03/04 04:55:26;;;;;;;;;;;;;;;-2.47;54.97;96467.97;5005741;28;19961;-73
2022/03/04 04:57:52;;;;;;;;;;;;;;;-2.47;55.07;96477.44;5009203;28;19991;-73
2022/03/04 05:00:18;;;;;;;;;;;;;;;-2.47;54.82;96472.31;5012540;28;20035;-73
2022/03/04 05:02:46;;;;;;;;;;;;;;;-2.48;54.96;96473.25;5002502;28;19948;-73
2022/03/04 05:05:12;;;;;;;;;;;;;;;-2.50;54.52;96475.97;5005472;28;20306;-73
2022/03/04 05:07:38;;;;;;;;;;;;;;;-2.53;55.03;96472.84;5002397;28;19953;-73
2022/03/04 05:10:05;;;;;;;;;;;;;;;-2.55;55.00;96479.88;5009128;28;19989;-73
2022/03/04 05:12:31;;;;;;;;;;;;;;;-2.59;55.38;96474.19;5005592;28;19981;-73
2022/03/04 05:14:56;;;;;;;;;;;;;;;-2.58;55.33;96480.13;4988502;28;19955;-73
2022/03/04 05:17:24;;;;;;;;;;;;;;;-2.59;55.57;96488.78;4984113;28;19957;-73
2022/03/04 05:19:50;;;;;;;;;;;;;;;-2.60;55.39;96488.00;5004881;28;19943;-73
2022/03/04 05:22:16;;;;;;;;;;;;;;;-2.61;55.62;96485.53;5005972;28;20304;-73
2022/03/04 05:24:42;;;;;;;;;;;;;;;-2.63;55.44;96492.56;5006075;28;19986;-73
2022/03/04 05:27:08;;;;;;;;;;;;;;;-2.64;55.59;96496.91;5003284;28;19980;-73
2022/03/04 05:29:34;;;;;;;;;;;;;;;-2.66;55.09;96494.47;4990625;28;19951;-73
2022/03/04 05:32:00;;;;;;;;;;;;;;;-2.67;55.22;96494.59;5009102;28;20028;-72
2022/03/04 05:34:26;;;;;;;;;;;;;;;-2.69;55.16;96488.78;5003964;28;19951;-73
2022/03/04 05:36:51;;;;;;;;;;;;;;;-2.70;55.71;96487.16;5006045;28;20006;-73
2022/03/04 05:39:17;;;;;;;;;;;;;;;-2.72;55.67;96484.72;5003524;28;19952;-73
2022/03/04 05:41:43;;;;;;;;;;;;;;;-2.75;55.86;96492.72;5011489;28;19949;-73
2022/03/04 05:44:09;;;;;;;;;;;;;;;-2.76;55.60;96496.22;5005255;28;19980;-75
2022/03/04 05:46:35;;;;;;;;;;;;;;;-2.76;55.99;96501.34;5005657;28;20405;-73
2022/03/04 05:49:02;;;;;;;;;;;;;;;-2.76;56.14;96508.22;5000740;28;19956;-73
2022/03/04 05:51:29;;;;;;;;;;;;;;;-2.76;55.73;96514.16;5004241;28;19987;-73
2022/03/04 05:53:55;;;;;;;;;;;;;;;-2.73;55.85;96515.66;5004363;28;19966;-73
2022/03/04 05:56:21;;;;;;;;;;;;;;;-2.71;55.45;96524.03;5008063;28;19958;-72
2022/03/04 05:58:47;;;;;;;;;;;;;;;-2.71;55.40;96514.59;5000446;28;20283;-73
2022/03/04 06:01:13;;;;;;;;;;;;;;;-2.67;55.20;96523.66;5005283;28;20407;-73
2022/03/04 06:03:39;;;;;;;;;;;;;;;-2.64;55.22;96520.00;5005418;28;19952;-73
2022/03/04 06:06:05;;;;;;;;;;;;;;;-2.61;54.96;96527.44;5005296;28;19974;-73
2022/03/04 06:08:32;;;;;;;;;;;;;;;-2.59;55.17;96522.97;5008394;28;19957;-73
2022/03/04 06:10:57;;;;;;;;;;;;;;;-2.56;54.92;96527.84;4998698;28;19945;-73
2022/03/04 06:13:24;;;;;;;;;;;;;;;-2.53;55.29;96530.13;5005051;28;20388;-73
2022/03/04 06:15:50;;;;;;;;;;;;;;;-2.52;54.88;96529.22;5010229;28;20297;-73
2022/03/04 06:18:16;;;;;;;;;;;;;;;-2.49;54.96;96535.81;5003274;28;19968;-73
2022/03/04 06:20:42;;;;;;;;;;;;;;;-2.50;55.10;96542.72;5001510;28;19945;-73
2022/03/04 06:23:08;;;;;;;;;;;;;;;-2.51;55.47;96538.53;5003194;28;20314;-73
2022/03/04 06:25:34;;;;;;;;;;;;;;;-2.49;55.45;96536.63;5008536;28;19956;-73
2022/03/04 06:28:00;;;;;;;;;;;;;;;-2.50;55.09;96545.28;5009453;28;19953;-73
2022/03/04 06:30:28;;;;;;;;;;;;;;;-2.49;55.12;96551.22;5001557;28;19948;-73
2022/03/04 06:33:30;;;;;;;;;;;;;;;-2.50;55.43;96547.88;4985564;28;20339;-73
2022/03/04 06:35:40;;;;;;;;;;;;;;;-2.19;54.97;96547.72;4985553;28;19946;-73
2022/03/04 06:38:06;;;;;;;;;;;;;;;-1.39;53.99;96552.59;5005145;28;19982;-73
2022/03/04 06:40:32;;;;;;;;;;;;;;;-0.50;52.73;96559.78;5007106;28;19951;-73
2022/03/04 06:42:58;;;;;;;;;;;;;;;0.33;51.29;96559.50;5001033;28;19951;-73
2022/03/04 06:45:24;;;;;;;;;;;;;;;1.08;49.88;96552.00;4997705;28;19978;-74
2022/03/04 06:47:51;;;;;;;;;;;;;;;1.73;48.68;96545.38;5007796;28;19960;-73
2022/03/04 06:50:17;;;;;;;;;;;;;;;2.22;47.45;96546.19;5002933;28;19960;-73
2022/03/04 06:52:43;;;;;;;;;;;;;;;2.67;46.27;96549.22;5004285;28;20336;-73
2022/03/04 06:55:09;;;;;;;;;;;;;;;3.07;45.49;96552.66;5004471;28;19951;-73
2022/03/04 06:57:35;;;;;;;;;;;;;;;3.38;44.99;96549.28;5003391;28;19961;-73
2022/03/04 07:00:03;;;;;;;;;;;;;;;3.75;44.62;96553.75;5002517;28;19952;-74
2022/03/04 07:02:29;;;;;;;;;;;;;;;4.06;44.06;96553.72;4986478;28;19959;-74
2022/03/04 07:04:55;;;;;;;;;;;;;;;4.39;43.63;96561.25;5003099;28;20468;-74
2022/03/04 07:07:20;;;;;;;;;;;;;;;4.67;42.93;96558.06;5001101;28;19992;-74
2022/03/04 07:09:46;;;;;;;;;;;;;;;4.97;43.13;96561.47;4999725;28;19953;-74
2022/03/04 07:12:12;;;;;;;;;;;;;;;5.27;42.51;96558.84;5006580;28;20009;-74
2022/03/04 07:14:38;;;;;;;;;;;;;;;5.60;41.97;96566.25;5009039;28;19959;-74
2022/03/04 07:17:04;;;;;;;;;;;;;;;5.87;41.72;96559.53;5003614;28;20363;-74
2022/03/04 07:19:30;;;;;;;;;;;;;;;6.14;41.20;96560.59;4999873;28;20443;-74
2022/03/04 07:21:55;;;;;;;;;;;;;;;6.29;39.71;96563.94;5001704;28;19961;-74
2022/03/04 07:24:21;;;;;;;;;;;;;;;6.32;40.36;96564.56;5004333;28;19959;-74
2022/03/04 07:26:47;;;;;;;;;;;;;;;6.49;39.92;96564.13;5003602;28;19982;-74
2022/03/04 07:29:13;;;;;;;;;;;;;;;6.67;39.21;96568.84;5008073;28;19956;-74
2022/03/04 07:31:39;;;;;;;;;;;;;;;6.85;39.90;96570.19;5004534;28;19955;-75
2022/03/04 07:34:05;;;;;;;;;;;;;;;6.99;40.36;96573.66;5004806;28;19974;-74
2022/03/04 07:36:33;;;;;;;;;;;;;;;7.12;39.76;96576.34;5005777;28;20374;-74
2022/03/04 07:38:59;;;;;;;;;;;;;;;7.21;39.59;96575.19;5008573;28;19952;-74
2022/03/04 07:41:25;;;;;;;;;;;;;;;7.30;39.69;96578.44;5007863;28;19955;-74
2022/03/04 07:43:51;;;;;;;;;;;;;;;7.33;39.55;96578.06;5006571;28;19982;-74
2022/03/04 07:46:17;;;;;;;;;;;;;;;7.18;38.74;96572.97;5004392;28;19959;-74
2022/03/04 07:48:43;;;;;;;;;;;;;;;7.02;38.95;96581.09;5007616;28;19962;-74
2022/03/04 07:51:09;;;;;;;;;;;;;;;6.94;38.98;96583.88;5011788;28;19964;-74
2022/03/04 07:53:35;;;;;;;;;;;;;;;6.94;39.23;96574.22;5004501;28;19967;-74
2022/03/04 07:56:01;;;;;;;;;;;;;;;6.99;38.45;96584.09;5005603;28;20011;-74
2022/03/04 07:58:27;;;;;;;;;;;;;;;7.02;39.44;96581.09;5006467;28;20365;-75
2022/03/04 08:00:53;;;;;;;;;;;;;;;7.11;40.34;96585.16;5013296;28;19956;-74
2022/03/04 08:03:19;;;;;;;;;;;;;;;6.94;39.90;96579.44;5009371;28;20355;-75
2022/03/04 08:05:44;;;;;;;;;;;;;;;6.99;39.85;96589.28;5006288;28;20009;-75
2022/03/04 08:08:10;;;;;;;;;;;;;;;7.16;39.58;96587.19;4972630;28;19964;-74
2022/03/04 08:10:36;;;;;;;;;;;;;;;7.34;39.83;96584.06;5011918;28;19959;-74
2022/03/04 08:13:02;;;;;;;;;;;;;;;7.50;39.10;96584.56;4988394;28;19969;-75
2022/03/04 08:15:28;;;;;;;;;;;;;;;7.61;39.58;96585.78;5003144;28;20034;-76
2022/03/04 08:17:54;;;;;;;;;;;;;;;7.85;39.36;96586.25;5012088;28;19954;-74
2022/03/04 08:20:21;;;;;;;;;;;;;;;8.02;37.46;96584.91;5006095;28;20416;-74
2022/03/04 08:22:47;;;;;;;;;;;;;;;8.10;38.74;96587.31;5005971;28;19965;-74
2022/03/04 08:25:13;;;;;;;;;;;;;;;8.16;38.17;96583.13;5001899;28;19994;-75
2022/03/04 08:27:39;;;;;;;;;;;;;;;8.23;39.13;96586.56;5016000;28;20401;-75
2022/03/04 08:30:06;;;;;;;;;;;;;;;8.32;38.17;96582.75;5005631;28;20015;-75
2022/03/04 08:32:32;;;;;;;;;;;;;;;8.46;38.18;96582.78;5009026;28;19967;-74
2022/03/04 08:35:01;;;;;;;;;;;;;;;8.19;37.74;96581.91;4989707;28;20007;-75
2022/03/04 08:37:27;;;;;;;;;;;;;;;7.90;37.81;96582.06;5001883;28;19948;-74
2022/03/04 08:39:53;;;;;;;;;;;;;;;7.67;38.42;96592.03;5005255;28;19956;-75
2022/03/04 08:42:19;;;;;;;;;;;;;;;7.52;39.16;96586.97;4992712;28;19996;-76
2022/03/04 08:44:44;;;;;;;;;;;;;;;7.55;39.04;96586.56;5001151;28;20017;-75
2022/03/04 08:47:10;;;;;;;;;;;;;;;7.64;39.44;96588.03;4979378;28;20479;-75
2022/03/04 08:49:37;;;;;;;;;;;;;;;7.67;38.87;96592.03;5005252;28;19953;-75
2022/03/04 08:52:03;;;;;;;;;;;;;;;7.89;37.66;96590.88;5009265;28;19947;-74
2022/03/04 08:54:29;;;;;;;;;;;;;;;8.07;38.59;96587.72;4987357;28;19985;-75
2022/03/04 08:56:55;;;;;;;;;;;;;;;8.27;38.25;96589.56;5002061;28;19956;-75
2022/03/04 08:59:21;;;;;;;;;;;;;;;8.53;37.96;96591.44;5013340;28;19957;-75
2022/03/04 09:01:47;;;;;;;;;;;;;;;8.69;37.17;96590.22;5006555;28;19953;-75
2022/03/04 09:04:14;;;;;;;;;;;;;;;8.74;37.43;96593.84;5005787;28;20000;-75
2022/03/04 09:06:40;;;;;;;;;;;;;;;8.64;36.39;96590.81;5012169;28;19985;-75
2022/03/04 09:09:06;;;;;;;;;;;;;;;8.56;35.87;96595.44;4995670;28;19962;-75
2022/03/04 09:11:32;;;;;;;;;;;;;;;8.54;36.31;96599.06;5006924;28;19966;-75
2022/03/04 09:13:58;;;;;;;;;;;;;;;8.44;35.81;96603.91;5007961;28;19975;-75
2022/03/04 09:16:24;;;;;;;;;;;;;;;8.45;37.16;96597.66;5006058;28;20018;-74
2022/03/04 09:18:49;;;;;;;;;;;;;;;8.24;35.82;96590.75;5006364;28;19963;-75
2022/03/04 09:21:15;;;;;;;;;;;;;;;8.06;35.63;96598.38;5005212;28;19963;-75
2022/03/04 09:23:41;;;;;;;;;;;;;;;7.87;36.52;96592.91;5003532;28;19963;-74
2022/03/04 09:26:08;;;;;;;;;;;;;;;7.77;36.32;96594.28;5007860;28;19960;-75
2022/03/04 09:28:34;;;;;;;;;;;;;;;7.63;37.01;96599.44;5010858;28;19955;-75
2022/03/04 09:31:00;;;;;;;;;;;;;;;7.63;36.23;96591.63;5000525;28;20348;-75
2022/03/04 09:33:27;;;;;;;;;;;;;;;7.70;37.33;96595.06;5007388;28;19966;-75
2022/03/04 09:35:53;;;;;;;;;;;;;;;7.79;37.29;96587.03;5010857;28;19955;-75
2022/03/04 09:38:18;;;;;;;;;;;;;;;7.67;36.98;96592.03;5002246;28;20418;-74
2022/03/04 09:40:45;;;;;;;;;;;;;;;7.48;37.74;96583.16;5003180;28;20357;-75
2022/03/04 09:43:11;;;;;;;;;;;;;;;7.48;37.13;96586.56;5005245;28;19952;-75
2022/03/04 09:45:36;;;;;;;;;;;;;;;7.43;37.77;96581.13;5002105;28;19982;-75
2022/03/04 09:48:03;;;;;;;;;;;;;;;7.52;36.02;96592.19;5005412;28;19978;-75
2022/03/04 09:50:30;;;;;;;;;;;;;;;7.60;36.81;96599.03;5009695;28;19960;-75
2022/03/04 09:52:56;;;;;;;;;;;;;;;7.65;37.18;96596.66;5001517;28;19967;-75
2022/03/04 09:55:22;;;;;;;;;;;;;;;7.84;37.16;96597.72;5002769;28;19957;-75
2022/03/04 09:57:48;;;;;;;;;;;;;;;7.96;38.77;96604.00;5004757;28;19975;-75
2022/03/04 10:00:14;;;;;;;;;;;;;;;8.01;36.97;96601.56;5009323;28;19955;-75
2022/03/04 10:02:40;;;;;;;;;;;;;;;8.15;36.42;96607.66;5001061;28;20390;-75
2022/03/04 10:05:08;;;;;;;;;;;;;;;8.14;36.71;96600.78;5005916;28;19952;-75
2022/03/04 10:07:41;;;;;;;;;;;;;;;8.07;36.80;96600.00;5004954;28;19950;-75
2022/03/04 10:10:15;;;;;;;;;;;;;;;8.03;35.07;96607.41;5004671;28;20025;-75
2022/03/04 10:12:57;;;;;;;;;;;;;;;8.04;36.11;96600.38;5007634;28;19959;-76
2022/03/04 10:15:24;;;;;;;;;;;;;;;8.13;34.39;96601.81;5005146;28;19952;-75
2022/03/04 10:17:58;;;;;;;;;;;;;;;8.23;36.02;96609.25;4996965;28;19957;-76
2022/03/04 10:20:31;;;;;;;;;;;;;;;8.12;34.55;96602.81;5007717;28;20318;-75
2022/03/04 10:23:08;;;;;;;;;;;;;;;8.10;34.00;96594.34;5009081;28;19962;-75
2022/03/04 10:25:34;;;;;;;;;;;;;;;7.81;36.85;96600.72;5005887;28;20433;-75
2022/03/04 10:28:08;;;;;;;;;;;;;;;7.47;36.03;96597.97;4987865;28;19955;-75
2022/03/04 10:30:36;;;;;;;;;;;;;;;7.51;35.89;96603.63;4985555;28;20409;-75
2022/03/04 10:33:06;;;;;;;;;;;;;;;7.57;35.08;96591.59;5003762;28;20319;-75
2022/03/04 10:35:32;;;;;;;;;;;;;;;7.41;31.81;96601.38;5005694;28;19955;-74
2022/03/04 10:37:59;;;;;;;;;;;;;;;7.30;35.91;96588.88;5011176;28;19951;-74
2022/03/04 10:40:26;;;;;;;;;;;;;;;7.23;36.09;96590.66;5005384;28;19977;-74
2022/03/04 10:42:56;;;;;;;;;;;;;;;7.16;33.96;96589.78;5001474;28;19962;-75
2022/03/04 10:45:22;;;;;;;;;;;;;;;7.28;35.00;96594.28;5004761;28;19976;-75
2022/03/04 10:48:02;;;;;;;;;;;;;;;7.25;35.41;96586.06;5008815;28;19957;-75
2022/03/04 10:50:34;;;;;;;;;;;;;;;7.27;33.96;96577.03;5000988;28;19950;-75
2022/03/04 10:53:01;;;;;;;;;;;;;;;7.24;33.16;96580.00;4997588;28;20331;-75
2022/03/04 10:55:32;;;;;;;;;;;;;;;7.21;32.94;96580.41;5009410;28;19950;-75
2022/03/04 10:57:58;;;;;;;;;;;;;;;7.22;31.58;96579.38;5003638;28;20303;-74
2022/03/04 11:00:35;;;;;;;;;;;;;;;7.24;34.24;96581.81;5007754;28;20387;-75
2022/03/04 11:03:01;;;;;;;;;;;;;;;7.22;33.54;96586.41;5004147;28;20314;-75
2022/03/04 11:05:27;;;;;;;;;;;;;;;7.40;34.51;96581.50;5001910;28;19959;-75
2022/03/04 11:07:53;;;;;;;;;;;;;;;7.55;33.47;96577.94;4988248;28;19993;-75
2022/03/04 11:10:20;;;;;;;;;;;;;;;7.77;33.10;96576.81;5007825;28;20077;-74
2022/03/04 11:12:50;;;;;;;;;;;;;;;7.97;33.88;96576.84;5005937;28;19953;-75
2022/03/04 11:15:16;;;;;;;;;;;;;;;8.22;32.43;96577.09;5009043;28;19959;-75
2022/03/04 11:17:42;;;;;;;;;;;;;;;8.42;32.98;96574.53;5005232;28;19956;-75
2022/03/04 11:20:09;;;;;;;;;;;;;;;8.48;33.99;96581.59;5001963;28;19964;-76
2022/03/04 11:22:38;;;;;;;;;;;;;;;8.55;32.14;96568.50;4989117;28;19960;-76
2022/03/04 11:25:05;;;;;;;;;;;;;;;8.83;32.50;96576.13;5008242;28;20388;-75
2022/03/04 11:27:33;;;;;;;;;;;;;;;9.08;30.62;96568.44;4988194;28;19964;-75
2022/03/04 11:29:59;;;;;;;;;;;;;;;9.26;32.51;96564.34;5006990;28;19947;-75
2022/03/04 11:32:29;;;;;;;;;;;;;;;9.26;31.50;96567.78;5004360;28;20065;-75
2022/03/04 11:34:55;;;;;;;;;;;;;;;9.18;28.12;96567.22;5008780;28;19986;-75
2022/03/04 11:37:22;;;;;;;;;;;;;;;9.10;30.26;96563.78;5007420;28;19959;-73
2022/03/04 11:40:01;;;;;;;;;;;;;;;9.16;31.45;96558.78;5007885;28;19955;-74
2022/03/04 11:42:35;;;;;;;;;;;;;;;9.20;31.31;96559.94;4997476;28;19957;-73
2022/03/04 11:45:02;;;;;;;;;;;;;;;9.22;30.76;96565.75;4939161;28;1813618;-74
2022/03/04 11:47:29;;;;;;;;;;;;;;;9.11;30.44;96562.81;5006116;28;19965;-74
2022/03/04 11:49:55;;;;;;;;;;;;;;;9.15;30.90;96563.19;5007262;28;19945;-74
2022/03/04 11:52:44;;;;;;;;;;;;;;;9.21;30.56;96556.31;5009854;28;19956;-74
2022/03/04 11:55:11;;;;;;;;;;;;;;;9.41;32.07;96554.44;4980110;28;20454;-74
2022/03/04 11:57:39;;;;;;;;;;;;;;;9.49;30.42;96554.22;5006388;28;19948;-73
2022/03/04 12:00:11;;;;;;;;;;;;;;;9.47;28.19;96552.78;5006432;28;19948;-73
2022/03/04 12:02:47;;;;;;;;;;;;;;;9.45;30.13;96549.56;5009318;28;19951;-76
2022/03/04 12:05:13;;;;;;;;;;;;;;;9.44;29.75;96545.38;4993726;28;20324;-76
2022/03/04 12:07:41;;;;;;;;;;;;;;;9.45;30.19;96541.72;5009047;28;19952;-73
2022/03/04 12:10:14;;;;;;;;;;;;;;;9.41;30.08;96551.81;5011836;28;19949;-76
2022/03/04 12:12:58;;;;;;;;;;;;;;;9.45;30.50;96546.97;5009897;28;19952;-76
2022/03/04 12:15:24;;;;;;;;;;;;;;;9.56;28.99;96543.72;5001864;28;19964;-76
2022/03/04 12:17:53;;;;;;;;;;;;;;;9.60;30.10;96541.47;5005397;28;20316;-76
2022/03/04 12:20:28;;;;;;;;;;;;;;;9.65;28.99;96534.59;5010538;28;20337;-76
2022/03/04 12:23:07;;;;;;;;;;;;;;;9.58;30.44;96538.28;5002872;28;19949;-76
2022/03/04 12:25:51;;;;;;;;;;;;;;;9.32;28.68;96532.13;5006000;28;19962;-76
2022/03/04 12:28:20;;;;;;;;;;;;;;;9.31;30.03;96533.16;5013013;28;19983;-76
2022/03/04 12:30:46;;;;;;;;;;;;;;;9.14;28.06;96533.59;5010270;28;20336;-76
2022/03/04 12:33:14;;;;;;;;;;;;;;;9.09;28.91;96524.75;4998944;28;19954;-77
2022/03/04 12:35:42;;;;;;;;;;;;;;;9.22;29.25;96524.72;5008684;28;19964;-76
2022/03/04 12:38:09;;;;;;;;;;;;;;;9.37;27.37;96516.59;5007016;28;19946;-76
2022/03/04 12:40:37;;;;;;;;;;;;;;;9.37;29.14;96516.59;5006483;28;19962;-76
2022/03/04 12:43:05;;;;;;;;;;;;;;;9.24;28.06;96522.72;5012698;28;19953;-76
2022/03/04 12:45:31;;;;;;;;;;;;;;;9.12;27.68;96519.13;5002234;28;20012;-76
2022/03/04 12:47:58;;;;;;;;;;;;;;;8.91;27.53;96530.66;5004935;28;20398;-76
2022/03/04 12:50:28;;;;;;;;;;;;;;;8.71;26.65;96525.44;5000911;28;19949;-76